Time;durP1;ratioP1;P1;durP2;ratioP2;P2;SDS_P1;SDS_P2;PMS_P1;PMS_P2;Temp;Humidity;BMP_temperature;BMP_pressure;BME280_temperature;BME280_humidity;BME280_pressure;Samples;Min_cycle;Max_cycle;Signal;HPM_P1;HPM_P2
2024/01/04 00:00:39;;;;;;;5.80;0.80;;;;;;;9.54;91.07;98584.56;4972569;28;20737;-66
2024/01/04 00:03:04;;;;;;;4.70;0.67;;;;;;;9.53;91.55;98581.06;4970418;28;20043;-65
2024/01/04 00:05:30;;;;;;;5.73;0.73;;;;;;;9.55;91.52;98581.06;4969911;28;20485;-66
2024/01/04 00:07:55;;;;;;;5.33;0.90;;;;;;;9.56;91.53;98589.88;4970626;28;20031;-64
2024/01/04 00:10:20;;;;;;;4.63;0.50;;;;;;;9.58;91.19;98585.47;4969933;28;20761;-66
2024/01/04 00:12:47;;;;;;;3.93;0.60;;;;;;;9.58;91.24;98589.00;4970325;28;20027;-66
2024/01/04 00:15:13;;;;;;;6.72;0.52;;;;;;;9.56;91.26;98588.13;4969891;28;20035;-66
2024/01/04 00:17:38;;;;;;;7.00;0.80;;;;;;;9.55;91.55;98591.63;4996742;28;20054;-65
2024/01/04 00:20:03;;;;;;;3.97;0.47;;;;;;;9.54;91.79;98589.84;4969817;28;20168;-65
2024/01/04 00:22:29;;;;;;;4.37;0.77;;;;;;;9.56;91.69;98597.78;4969625;28;20502;-65
2024/01/04 00:24:54;;;;;;;6.60;0.63;;;;;;;9.58;91.67;98591.63;4969807;28;20027;-65
2024/01/04 00:27:20;;;;;;;3.07;0.60;;;;;;;9.59;91.45;98598.69;4970092;28;20129;-66
2024/01/04 00:29:46;;;;;;;6.30;0.60;;;;;;;9.59;91.37;98601.31;4970087;28;20031;-65
2024/01/04 00:32:11;;;;;;;4.47;0.55;;;;;;;9.59;91.31;98605.69;4970052;28;20414;-65
2024/01/04 00:34:37;;;;;;;4.13;0.70;;;;;;;9.60;91.14;98607.47;4969741;28;20043;-66
2024/01/04 00:39:17;;;;;;;3.05;0.45;;;;;;;9.59;90.83;98601.31;5104122;27;20861;-66
2024/01/04 00:41:43;;;;;;;3.58;0.40;;;;;;;9.59;91.00;98609.22;5087314;28;20404;-63
2024/01/04 00:44:08;;;;;;;3.00;0.50;;;;;;;9.59;90.72;98608.34;5087548;28;20123;-63
2024/01/04 00:46:34;;;;;;;3.08;0.70;;;;;;;9.60;90.62;98599.56;5085864;28;20044;-63
2024/01/04 00:48:59;;;;;;;5.03;0.50;;;;;;;9.61;90.35;98596.97;5085960;28;20473;-63
2024/01/04 00:51:25;;;;;;;3.63;0.53;;;;;;;9.61;90.45;98612.78;5087239;28;20032;-65
2024/01/04 00:53:51;;;;;;;3.25;0.47;;;;;;;9.59;90.31;98609.22;5087302;28;20075;-63
2024/01/04 00:56:16;;;;;;;4.30;0.53;;;;;;;9.61;90.20;98609.25;5085541;28;20273;-64
2024/01/04 00:58:41;;;;;;;3.57;0.40;;;;;;;9.62;90.22;98611.03;5085679;28;20103;-64
2024/01/04 01:01:07;;;;;;;3.57;0.47;;;;;;;9.62;89.86;98611.88;5089685;28;20024;-65
2024/01/04 01:03:33;;;;;;;4.10;0.53;;;;;;;9.64;89.85;98617.16;5085989;28;20286;-63
2024/01/04 01:05:58;;;;;;;3.87;0.60;;;;;;;9.63;89.62;98610.13;5086800;28;20032;-64
2024/01/04 01:08:25;;;;;;;2.67;0.47;;;;;;;9.60;89.36;98608.34;5087458;28;20321;-65
2024/01/04 01:10:50;;;;;;;2.22;0.40;;;;;;;9.61;89.48;98611.88;5094224;28;20028;-64
2024/01/04 01:13:20;;;;;;;2.73;0.60;;;;;;;9.59;89.40;98614.50;5086855;28;20046;-64
2024/01/04 01:15:47;;;;;;;5.05;0.40;;;;;;;9.60;89.34;98621.53;5086789;28;20024;-65
2024/01/04 01:18:13;;;;;;;2.03;0.40;;;;;;;9.60;89.33;98620.66;5086808;28;20044;-65
2024/01/04 01:20:39;;;;;;;2.80;0.40;;;;;;;9.61;89.27;98615.41;5086615;28;20539;-65
2024/01/04 01:23:04;;;;;;;2.57;0.43;;;;;;;9.58;89.34;98619.75;5085422;28;20047;-65
2024/01/04 01:25:29;;;;;;;2.30;0.30;;;;;;;9.60;89.30;98623.28;5086143;28;20040;-65
2024/01/04 01:27:55;;;;;;;3.78;0.50;;;;;;;9.58;88.87;98620.63;5086454;28;20029;-65
2024/01/04 01:30:20;;;;;;;2.97;0.40;;;;;;;9.59;89.00;98619.75;5086340;28;20157;-66
2024/01/04 01:32:46;;;;;;;3.30;0.50;;;;;;;9.58;89.02;98620.63;5086353;28;20116;-65
2024/01/04 01:35:13;;;;;;;2.00;0.40;;;;;;;9.57;89.07;98618.84;5084847;28;20040;-64
2024/01/04 01:37:39;;;;;;;4.33;0.57;;;;;;;9.57;88.92;98626.75;5084563;28;20363;-64
2024/01/04 01:40:06;;;;;;;3.37;0.30;;;;;;;9.53;88.99;98627.59;5085926;28;20040;-64
2024/01/04 01:42:32;;;;;;;2.93;0.50;;;;;;;9.54;89.06;98624.09;5084986;28;20274;-64
2024/01/04 01:44:57;;;;;;;3.67;0.70;;;;;;;9.57;88.99;98625.91;5089265;28;20093;-64
2024/01/04 01:47:24;;;;;;;3.80;1.10;;;;;;;9.54;88.96;98626.72;5097563;28;20040;-64
2024/01/04 01:49:50;;;;;;;3.92;0.40;;;;;;;9.57;88.89;98633.81;5076596;28;20032;-64
2024/01/04 01:52:16;;;;;;;3.43;0.60;;;;;;;9.57;88.86;98634.66;5071272;28;20080;-64
2024/01/04 01:54:41;;;;;;;2.05;0.30;;;;;;;9.59;88.61;98635.56;5071019;28;20045;-64
2024/01/04 01:57:08;;;;;;;4.90;0.43;;;;;;;9.61;88.06;98638.25;5071160;28;20708;-64
2024/01/04 01:59:33;;;;;;;4.32;0.60;;;;;;;9.61;88.07;98638.25;5070985;28;20115;-64
2024/01/04 02:01:58;;;;;;;2.87;0.30;;;;;;;9.60;87.98;98639.09;5073593;28;20103;-64
2024/01/04 02:04:24;;;;;;;2.73;0.50;;;;;;;9.59;87.68;98638.22;5072086;28;20111;-64
2024/01/04 02:06:49;;;;;;;2.73;0.43;;;;;;;9.58;87.85;98640.81;5072109;28;20700;-64
2024/01/04 02:09:15;;;;;;;4.93;1.00;;;;;;;9.57;88.02;98634.66;5071891;28;20119;-64
2024/01/04 02:11:41;;;;;;;4.47;0.50;;;;;;;9.55;88.19;98639.03;5070893;28;20068;-64
2024/01/04 02:14:06;;;;;;;6.77;0.50;;;;;;;9.51;87.88;98634.63;5071998;28;20075;-65
2024/01/04 02:16:32;;;;;;;3.70;0.37;;;;;;;9.51;87.96;98634.63;5071847;28;20089;-65
2024/01/04 02:18:58;;;;;;;2.20;0.37;;;;;;;9.53;88.10;98640.75;5070452;28;20128;-65
2024/01/04 02:21:23;;;;;;;5.50;0.50;;;;;;;9.54;87.61;98630.25;5070840;28;20285;-64
2024/01/04 02:23:50;;;;;;;2.33;0.43;;;;;;;9.54;87.57;98639.91;5071739;28;20485;-64
2024/01/04 02:26:15;;;;;;;2.83;0.52;;;;;;;9.49;87.70;98629.31;5053177;28;20076;-64
2024/01/04 02:28:41;;;;;;;3.23;0.50;;;;;;;9.48;87.60;98632.81;5061556;28;20499;-64
2024/01/04 02:31:06;;;;;;;3.63;0.40;;;;;;;9.46;87.58;98620.50;5071745;28;20213;-65
2024/01/04 02:33:31;;;;;;;1.73;0.30;;;;;;;9.37;88.15;98625.66;5071834;28;20044;-64
2024/01/04 02:35:57;;;;;;;2.17;0.30;;;;;;;9.33;88.27;98635.25;5070241;28;20409;-65
2024/01/04 02:38:22;;;;;;;4.90;0.70;;;;;;;9.33;88.48;98631.75;5071434;28;20127;-64
2024/01/04 02:40:47;;;;;;;3.30;0.43;;;;;;;9.27;88.80;98635.22;5071388;28;20040;-65
2024/01/04 02:43:13;;;;;;;4.17;0.73;;;;;;;9.23;89.18;98638.66;5071651;28;20040;-65
2024/01/04 02:45:38;;;;;;;2.43;0.33;;;;;;;9.24;89.19;98642.16;5071242;28;20366;-64
2024/01/04 02:48:04;;;;;;;2.73;0.40;;;;;;;9.21;89.04;98640.41;5071593;28;20032;-64
2024/01/04 02:50:31;;;;;;;1.75;0.40;;;;;;;9.15;89.72;98648.22;5071199;28;20028;-64
2024/01/04 02:52:56;;;;;;;4.20;0.50;;;;;;;9.09;90.36;98638.47;5071398;28;20078;-64
2024/01/04 02:55:21;;;;;;;2.77;0.33;;;;;;;9.02;91.29;98644.53;5063847;28;20021;-65
2024/01/04 02:57:47;;;;;;;1.80;0.30;;;;;;;8.99;92.24;98643.59;5067483;28;20519;-65
2024/01/04 03:00:17;;;;;;;3.47;0.43;;;;;;;8.97;92.37;98648.88;5073409;28;20115;-65
2024/01/04 03:02:42;;;;;;;3.47;0.52;;;;;;;8.97;92.57;98637.44;5066826;28;20377;-66
2024/01/04 03:05:07;;;;;;;3.57;0.40;;;;;;;8.92;93.28;98634.75;5065028;28;20094;-65
2024/01/04 03:07:33;;;;;;;3.08;0.40;;;;;;;8.92;93.39;98649.66;5063766;28;20024;-66
2024/01/04 03:09:59;;;;;;;2.23;0.40;;;;;;;8.89;93.69;98642.59;5065860;28;20070;-66
2024/01/04 03:12:24;;;;;;;3.08;0.73;;;;;;;8.86;93.92;98639.03;5062600;28;20028;-66
2024/01/04 03:14:50;;;;;;;5.23;0.90;;;;;;;8.80;94.35;98642.47;5065339;28;20066;-65
2024/01/04 03:17:15;;;;;;;3.63;0.60;;;;;;;8.78;95.02;98640.69;5063156;28;20111;-66
2024/01/04 03:19:41;;;;;;;4.37;0.50;;;;;;;8.78;95.65;98646.81;5069533;28;20036;-66
2024/01/04 03:22:06;;;;;;;2.57;0.30;;;;;;;8.77;96.10;98650.31;5070538;28;20335;-67
2024/01/04 03:24:32;;;;;;;1.80;0.43;;;;;;;8.74;96.03;98630.94;5066384;28;20116;-67
2024/01/04 03:26:57;;;;;;;2.83;0.40;;;;;;;8.69;98.05;98641.41;5056960;28;20393;-67
2024/01/04 03:29:22;;;;;;;2.60;0.53;;;;;;;8.67;98.31;98635.25;5058923;28;20111;-67
2024/01/04 03:31:48;;;;;;;2.00;0.50;;;;;;;8.65;98.55;98643.13;5074234;28;20369;-68
2024/01/04 03:34:13;;;;;;;3.67;0.50;;;;;;;8.68;99.37;98647.56;5071774;28;20567;-67
2024/01/04 03:36:39;;;;;;;3.33;0.40;;;;;;;8.67;99.75;98653.69;5070407;28;20111;-67
2024/01/04 03:39:05;;;;;;;2.43;0.43;;;;;;;8.67;99.96;98656.31;5072606;28;20032;-67
2024/01/04 03:41:30;;;;;;;3.15;0.40;;;;;;;8.66;99.96;98663.31;5070082;28;20128;-67
2024/01/04 03:43:55;;;;;;;4.97;1.57;;;;;;;8.68;100.00;98665.97;5070134;28;20456;-67
2024/01/04 03:46:21;;;;;;;3.17;0.40;;;;;;;8.70;100.00;98658.97;5068863;28;20165;-63
2024/01/04 03:48:46;;;;;;;1.87;0.30;;;;;;;8.95;100.00;98655.84;5072300;28;20404;-61
2024/01/04 03:51:14;;;;;;;3.33;0.47;;;;;;;9.16;100.00;98646.47;5069991;28;20108;-62
2024/01/04 03:53:40;;;;;;;3.65;0.57;;;;;;;9.33;100.00;98652.81;5069095;28;20085;-62
2024/01/04 03:56:05;;;;;;;4.37;0.70;;;;;;;9.51;100.00;98658.34;5068841;28;20036;-62
2024/01/04 03:58:32;;;;;;;3.03;0.40;;;;;;;9.77;100.00;98650.69;5069864;28;20135;-63
2024/01/04 04:00:57;;;;;;;2.78;0.40;;;;;;;9.85;100.00;98655.19;5072433;28;20552;-62
2024/01/04 04:03:23;;;;;;;3.70;0.40;;;;;;;9.65;99.42;98651.47;5069948;28;20041;-66
2024/01/04 04:05:48;;;;;;;3.07;0.50;;;;;;;9.39;99.83;98656.41;5070636;28;20039;-67
2024/01/04 04:08:13;;;;;;;2.75;0.57;;;;;;;9.16;100.00;98650.00;5069774;28;20032;-68
2024/01/04 04:10:40;;;;;;;4.23;0.50;;;;;;;9.01;100.00;98655.03;5069671;28;20556;-68
2024/01/04 04:13:05;;;;;;;1.77;0.30;;;;;;;8.91;100.00;98656.66;5069717;28;20040;-67
2024/01/04 04:15:31;;;;;;;3.10;0.50;;;;;;;8.83;100.00;98655.66;5069250;28;20040;-67
2024/01/04 04:17:57;;;;;;;3.20;0.50;;;;;;;8.76;100.00;98660.81;5069761;28;20045;-67
2024/01/04 04:20:22;;;;;;;3.17;0.40;;;;;;;8.68;100.00;98656.31;5069125;28;20118;-68
2024/01/04 04:22:47;;;;;;;1.57;0.30;;;;;;;8.63;100.00;98663.25;5069608;28;20039;-67
2024/01/04 04:27:25;;;;;;;2.60;0.55;;;;;;;8.56;100.00;98681.56;5105574;27;20387;-63
2024/01/04 04:29:51;;;;;;;5.63;0.60;;;;;;;8.53;100.00;98663.13;5106989;28;20047;-65
2024/01/04 04:32:17;;;;;;;1.70;0.30;;;;;;;8.51;100.00;98670.97;5105925;28;20118;-66
2024/01/04 04:34:42;;;;;;;2.70;0.40;;;;;;;8.50;100.00;98669.19;5105455;28;20048;-65
2024/01/04 04:37:07;;;;;;;3.37;0.40;;;;;;;8.49;100.00;98670.06;5105436;28;20114;-68
2024/01/04 04:39:33;;;;;;;2.57;0.40;;;;;;;8.49;100.00;98671.78;5105381;28;20108;-67
2024/01/04 04:41:58;;;;;;;2.43;0.50;;;;;;;8.48;100.00;98675.31;5105937;28;20593;-67
2024/01/04 04:44:24;;;;;;;2.43;0.40;;;;;;;8.47;100.00;98674.41;5105382;28;20181;-69
2024/01/04 04:46:49;;;;;;;3.03;0.40;;;;;;;8.48;100.00;98678.84;5106317;28;20911;-65
2024/01/04 04:49:14;;;;;;;4.63;0.60;;;;;;;8.45;100.00;98684.03;5106619;28;20048;-65
2024/01/04 04:51:40;;;;;;;4.23;0.53;;;;;;;8.44;100.00;98691.88;5106936;28;20032;-66
2024/01/04 04:54:05;;;;;;;4.57;0.57;;;;;;;8.44;100.00;98690.13;5087942;28;20035;-65
2024/01/04 04:56:31;;;;;;;3.30;0.50;;;;;;;8.44;100.00;98694.50;5106485;28;20039;-65
2024/01/04 05:01:08;;;;;;;3.28;0.55;;;;;;;8.45;100.00;98706.81;5006634;28;20783;-67
2024/01/04 05:03:35;;;;;;;1.97;0.40;;;;;;;8.41;100.00;98703.25;5004085;28;20038;-65
2024/01/04 05:06:00;;;;;;;2.35;0.40;;;;;;;8.40;100.00;98708.47;5003852;28;20379;-66
2024/01/04 05:08:25;;;;;;;2.50;0.43;;;;;;;8.39;100.00;98707.59;5004005;28;20049;-66
2024/01/04 05:10:51;;;;;;;2.20;0.40;;;;;;;8.43;100.00;98713.81;5003623;28;20044;-66
2024/01/04 05:13:17;;;;;;;2.47;0.50;;;;;;;8.42;100.00;98715.53;5004154;28;20600;-66
2024/01/04 05:15:43;;;;;;;2.88;0.50;;;;;;;8.42;100.00;98715.53;5003654;28;20034;-66
2024/01/04 05:18:09;;;;;;;4.07;0.77;;;;;;;8.45;100.00;98725.22;5003915;28;20107;-65
2024/01/04 05:20:34;;;;;;;2.88;0.60;;;;;;;8.47;100.00;98734.03;5003607;28;20103;-66
2024/01/04 05:23:00;;;;;;;4.80;0.80;;;;;;;8.47;100.00;98728.78;5003672;28;20026;-65
2024/01/04 05:27:56;;;;;;;3.05;0.70;;;;;;;8.48;100.00;98727.91;5085988;28;20372;-65
2024/01/04 05:30:21;;;;;;;3.90;0.77;;;;;;;8.46;100.00;98733.16;5085645;28;20404;-64
2024/01/04 05:32:47;;;;;;;4.97;0.70;;;;;;;8.46;100.00;98737.50;5087286;28;20112;-65
2024/01/04 05:35:12;;;;;;;6.47;0.90;;;;;;;8.44;100.00;98742.75;5086811;28;20630;-64
2024/01/04 05:37:38;;;;;;;3.87;0.60;;;;;;;8.45;100.00;98747.16;5087304;28;20043;-64
2024/01/04 05:40:04;;;;;;;3.30;0.70;;;;;;;8.45;100.00;98741.88;5087377;28;20286;-64
2024/01/04 05:42:29;;;;;;;3.65;0.80;;;;;;;8.46;100.00;98737.50;5086979;28;20047;-66
2024/01/04 05:44:55;;;;;;;3.50;0.70;;;;;;;8.44;100.00;98744.47;5086866;28;20032;-65
2024/01/04 05:47:20;;;;;;;5.57;0.60;;;;;;;8.42;100.00;98740.97;5086962;28;20198;-65
2024/01/04 05:49:45;;;;;;;3.33;0.87;;;;;;;8.36;100.00;98752.25;5086621;28;20108;-66
2024/01/04 05:52:12;;;;;;;3.47;0.60;;;;;;;8.34;100.00;98750.47;5086745;28;20115;-66
2024/01/04 05:54:37;;;;;;;3.10;0.70;;;;;;;8.32;100.00;98744.28;5085176;28;20377;-66
2024/01/04 05:57:03;;;;;;;3.45;0.77;;;;;;;8.28;100.00;98747.69;5086856;28;20107;-66
2024/01/04 05:59:28;;;;;;;3.27;0.60;;;;;;;8.27;100.00;98766.94;5086597;28;20273;-66
2024/01/04 06:01:54;;;;;;;4.47;0.70;;;;;;;8.26;100.00;98758.16;5090883;28;20070;-66
2024/01/04 06:04:19;;;;;;;3.00;0.60;;;;;;;8.23;100.00;98758.13;5089979;28;20411;-66
2024/01/04 06:06:46;;;;;;;3.63;0.80;;;;;;;8.21;100.00;98762.47;5087809;28;20465;-66
2024/01/04 06:09:12;;;;;;;3.45;0.73;;;;;;;8.18;100.00;98767.66;5086170;28;20062;-66
2024/01/04 06:11:38;;;;;;;3.17;0.63;;;;;;;8.17;100.00;98782.56;5086515;28;20044;-66
2024/01/04 06:14:05;;;;;;;3.42;0.77;;;;;;;8.15;100.00;98784.25;5086628;28;20452;-66
2024/01/04 06:16:31;;;;;;;3.50;0.93;;;;;;;8.14;100.00;98790.38;5086101;28;20040;-66
2024/01/04 06:18:56;;;;;;;3.97;0.70;;;;;;;8.15;100.00;98792.16;5086306;28;20055;-65
2024/01/04 06:21:21;;;;;;;4.50;0.70;;;;;;;8.15;100.00;98799.16;5086374;28;20036;-66
2024/01/04 06:23:47;;;;;;;4.77;0.70;;;;;;;8.15;100.00;98793.88;5086321;28;20115;-66
2024/01/04 06:26:19;;;;;;;3.80;0.80;;;;;;;8.15;100.00;98794.78;5085876;28;20123;-66
2024/01/04 06:28:45;;;;;;;3.05;0.60;;;;;;;8.16;100.00;98795.66;5082644;28;20028;-66
2024/01/04 06:31:10;;;;;;;4.40;1.00;;;;;;;8.16;100.00;98798.28;5086041;28;20074;-67
2024/01/04 06:33:35;;;;;;;3.60;0.70;;;;;;;8.15;100.00;98793.88;5086286;28;20036;-66
2024/01/04 06:36:02;;;;;;;3.30;0.73;;;;;;;8.14;100.00;98808.78;5085672;28;20103;-66
2024/01/04 06:38:28;;;;;;;2.60;0.70;;;;;;;8.14;100.00;98813.19;5077428;28;20032;-66
2024/01/04 06:40:57;;;;;;;5.30;0.95;;;;;;;8.14;100.00;98826.31;5072146;28;20477;-66
2024/01/04 06:43:22;;;;;;;6.63;0.90;;;;;;;8.14;100.00;98824.53;5072333;28;20065;-66
2024/01/04 06:45:48;;;;;;;4.30;0.80;;;;;;;8.14;100.00;98819.28;5072181;28;20040;-66
2024/01/04 06:48:13;;;;;;;3.87;0.73;;;;;;;8.12;100.00;98823.66;5072227;28;20032;-66
2024/01/04 06:50:39;;;;;;;4.73;0.70;;;;;;;8.10;100.00;98838.50;5072277;28;20119;-68
2024/01/04 06:53:04;;;;;;;2.78;0.50;;;;;;;8.07;100.00;98833.19;5072465;28;20082;-65
2024/01/04 06:55:29;;;;;;;5.30;0.87;;;;;;;8.04;100.00;98835.72;5071787;28;20518;-66
2024/01/04 06:57:55;;;;;;;3.27;0.90;;;;;;;7.97;100.00;98851.38;5072218;28;20124;-66
2024/01/04 07:00:20;;;;;;;3.70;0.70;;;;;;;7.94;100.00;98865.34;5074596;28;20493;-66
2024/01/04 07:02:46;;;;;;;6.93;1.13;;;;;;;7.93;100.00;98874.06;5072122;28;20076;-65
2024/01/04 07:05:11;;;;;;;2.70;0.60;;;;;;;7.93;100.00;98876.69;5071585;28;20115;-66
2024/01/04 07:07:37;;;;;;;3.03;0.63;;;;;;;7.86;100.00;98890.56;5071933;28;20302;-67
2024/01/04 07:10:03;;;;;;;2.60;0.50;;;;;;;7.75;100.00;98882.44;5071608;28;20457;-67
2024/01/04 07:12:29;;;;;;;2.08;0.32;;;;;;;7.60;100.00;98899.56;5072023;28;20048;-67
2024/01/04 07:14:54;;;;;;;2.80;0.43;;;;;;;7.48;100.00;98907.19;5071566;28;20105;-66
2024/01/04 07:17:22;;;;;;;3.03;0.53;;;;;;;7.34;100.00;98918.25;5071757;28;20037;-67
2024/01/04 07:19:48;;;;;;;2.20;0.30;;;;;;;7.22;100.00;98917.06;5071726;28;20091;-67
2024/01/04 07:22:15;;;;;;;1.37;0.20;;;;;;;7.11;100.00;98914.16;5071586;28;20028;-66
2024/01/04 07:24:41;;;;;;;1.23;0.22;;;;;;;6.99;100.00;98926.09;5071426;28;20090;-67
2024/01/04 07:27:08;;;;;;;2.47;0.40;;;;;;;6.87;100.00;98937.13;5071297;28;20060;-66
2024/01/04 07:29:33;;;;;;;3.85;0.47;;;;;;;6.77;100.00;98925.50;5071165;28;20512;-68
2024/01/04 07:31:59;;;;;;;1.70;0.30;;;;;;;6.70;100.00;98943.69;5071405;28;20036;-69
2024/01/04 07:34:24;;;;;;;2.40;0.40;;;;;;;6.63;100.00;98946.97;5071454;28;20301;-68
2024/01/04 07:36:53;;;;;;;3.67;0.60;;;;;;;6.56;100.00;98955.53;5071244;28;20032;-68
2024/01/04 07:39:18;;;;;;;1.85;0.40;;;;;;;6.48;100.00;98950.94;5071291;28;20481;-67
2024/01/04 07:41:43;;;;;;;1.17;0.30;;;;;;;6.44;100.00;98975.31;5071269;28;20096;-69
2024/01/04 07:44:10;;;;;;;1.90;0.40;;;;;;;6.41;100.00;98967.34;5071219;28;20040;-70
2024/01/04 07:46:36;;;;;;;4.50;0.70;;;;;;;6.37;100.00;98964.59;5069453;28;20025;-68
2024/01/04 07:49:03;;;;;;;4.82;1.48;;;;;;;6.35;100.00;98959.31;5070354;28;20512;-67
2024/01/04 07:51:29;;;;;;;2.00;0.30;;;;;;;6.33;100.00;98962.72;5070661;28;20045;-70
2024/01/04 07:53:55;;;;;;;4.10;0.40;;;;;;;6.34;100.00;98956.66;5071255;28;20051;-69
2024/01/04 07:58:35;;;;;;;1.88;0.30;;;;;;;6.29;100.00;98964.38;5068016;28;20419;-70
2024/01/04 08:01:00;;;;;;;2.83;0.53;;;;;;;6.23;100.00;98971.16;5051895;28;20495;-69
2024/01/04 08:03:25;;;;;;;2.78;0.50;;;;;;;6.20;100.00;98971.97;5046902;28;20041;-69
2024/01/04 08:05:51;;;;;;;2.80;0.60;;;;;;;6.17;100.00;98960.53;5046560;28;20132;-66
2024/01/04 08:08:16;;;;;;;2.43;0.40;;;;;;;6.12;100.00;98968.22;5046965;28;20129;-68
2024/01/04 08:10:42;;;;;;;3.30;0.50;;;;;;;6.08;100.00;98975.09;5046628;28;20037;-68
2024/01/04 08:13:08;;;;;;;7.67;0.70;;;;;;;6.07;100.00;98982.91;5046867;28;20116;-69
2024/01/04 08:15:33;;;;;;;3.60;0.50;;;;;;;6.05;100.00;98977.66;5046359;28;20033;-69
2024/01/04 08:18:03;;;;;;;3.33;0.43;;;;;;;6.05;100.00;98988.13;5046807;28;20037;-67
2024/01/04 08:20:28;;;;;;;4.07;0.50;;;;;;;6.03;100.00;98981.03;5046697;28;20043;-67
2024/01/04 08:22:54;;;;;;;2.83;0.60;;;;;;;6.03;100.00;98991.53;5046564;28;20029;-67
2024/01/04 08:25:19;;;;;;;1.63;0.30;;;;;;;6.01;100.00;99003.72;5046416;28;20470;-67
2024/01/04 08:27:44;;;;;;;2.43;0.43;;;;;;;5.98;100.00;98991.38;5046614;28;20029;-68
2024/01/04 08:30:10;;;;;;;3.63;0.70;;;;;;;5.96;100.00;99000.06;5046537;28;20029;-68
2024/01/04 08:32:36;;;;;;;1.90;0.38;;;;;;;5.92;100.00;98998.19;5046510;28;20041;-68
2024/01/04 08:35:01;;;;;;;2.57;0.50;;;;;;;5.88;100.00;99005.03;5046202;28;20033;-68
2024/01/04 08:37:26;;;;;;;3.70;0.70;;;;;;;5.86;100.00;99013.69;5046169;28;20051;-68
2024/01/04 08:39:52;;;;;;;3.00;0.60;;;;;;;5.83;100.00;99003.97;5046009;28;20505;-68
2024/01/04 08:42:18;;;;;;;2.80;0.60;;;;;;;5.82;100.00;99011.81;5046421;28;20021;-69
2024/01/04 08:44:43;;;;;;;3.53;0.80;;;;;;;5.81;100.00;99024.00;5045968;28;20088;-70
2024/01/04 08:47:09;;;;;;;2.10;0.30;;;;;;;5.78;100.00;99012.53;5046033;28;20533;-72
2024/01/04 08:49:34;;;;;;;3.33;0.60;;;;;;;5.76;100.00;99022.97;5046028;28;20053;-70
2024/01/04 08:51:59;;;;;;;3.53;0.60;;;;;;;5.75;100.00;99030.78;5046257;28;20492;-71
2024/01/04 08:54:25;;;;;;;3.40;0.60;;;;;;;5.72;100.00;99028.97;5045858;28;20136;-69
2024/01/04 08:56:50;;;;;;;2.50;0.60;;;;;;;5.70;100.00;99037.59;5045769;28;20037;-70
2024/01/04 08:59:16;;;;;;;2.23;0.40;;;;;;;5.68;100.00;99054.97;5046252;28;20033;-73
2024/01/04 09:01:41;;;;;;;3.07;0.63;;;;;;;5.63;100.00;99057.44;5049093;28;20055;-70
2024/01/04 09:04:07;;;;;;;3.50;0.40;;;;;;;5.58;100.00;99061.63;5047652;28;20033;-70
2024/01/04 09:06:33;;;;;;;3.30;0.60;;;;;;;5.55;100.00;99066.78;5047914;28;20045;-70
2024/01/04 09:08:59;;;;;;;3.75;0.60;;;;;;;5.53;100.00;99068.44;5038651;28;20033;-69
2024/01/04 09:11:28;;;;;;;2.67;0.53;;;;;;;5.51;100.00;99075.38;5032805;28;20441;-69
2024/01/04 09:13:53;;;;;;;2.70;0.50;;;;;;;5.46;100.00;99071.72;5032655;28;20074;-71
2024/01/04 09:16:18;;;;;;;2.30;0.50;;;;;;;5.36;100.00;99086.22;5032076;28;20432;-70
2024/01/04 09:18:44;;;;;;;3.38;0.50;;;;;;;5.32;100.00;99097.41;5032345;28;20109;-71
2024/01/04 09:21:09;;;;;;;2.20;0.30;;;;;;;5.30;100.00;99096.47;5031950;28;20385;-72
2024/01/04 09:23:35;;;;;;;1.87;0.50;;;;;;;5.22;100.00;99111.00;5032486;28;20037;-69
2024/01/04 09:26:08;;;;;;;2.07;0.40;;;;;;;5.19;100.00;99108.25;5032167;28;20108;-71
2024/01/04 09:28:34;;;;;;;1.92;0.40;;;;;;;5.14;100.00;99113.34;5032281;28;20034;-71
2024/01/04 09:30:59;;;;;;;2.43;0.40;;;;;;;5.14;100.00;99118.56;5032306;28;20084;-69
2024/01/04 09:33:24;;;;;;;2.05;0.40;;;;;;;5.14;100.00;99115.06;5032743;28;20038;-69
2024/01/04 09:35:50;;;;;;;1.97;0.40;;;;;;;5.11;100.00;99125.44;5032174;28;20076;-71
2024/01/04 09:38:15;;;;;;;1.73;0.30;;;;;;;5.08;100.00;99114.84;5032442;28;20049;-69
2024/01/04 09:40:41;;;;;;;2.57;0.40;;;;;;;5.06;100.00;99126.97;5032093;28;20026;-71
2024/01/04 09:43:08;;;;;;;2.57;0.50;;;;;;;5.02;100.00;99122.47;5032243;28;20369;-73
2024/01/04 09:45:37;;;;;;;2.20;0.40;;;;;;;5.01;100.00;99128.53;5031761;28;20033;-69
2024/01/04 09:48:06;;;;;;;1.87;0.37;;;;;;;4.99;100.00;99120.63;5032398;28;20070;-72
2024/01/04 09:50:31;;;;;;;2.67;0.45;;;;;;;5.00;100.00;99126.75;5031898;28;20406;-69
2024/01/04 09:52:58;;;;;;;2.27;0.43;;;;;;;4.99;100.00;99136.31;5032292;28;20125;-69
2024/01/04 09:55:23;;;;;;;2.10;0.32;;;;;;;4.94;100.00;99132.66;5031748;28;20072;-68
2024/01/04 09:57:49;;;;;;;3.00;0.73;;;;;;;4.94;100.00;99127.41;5031640;28;20080;-76
2024/01/04 10:00:15;;;;;;;1.77;0.40;;;;;;;4.94;100.00;99139.59;5031565;28;20032;-73
2024/01/04 10:02:44;;;;;;;2.13;0.40;;;;;;;4.97;100.00;99144.97;5032009;28;20532;-69
2024/01/04 10:05:14;;;;;;;2.72;0.60;;;;;;;4.98;100.00;99152.84;5031625;28;20033;-67
2024/01/04 10:07:52;;;;;;;2.60;0.50;;;;;;;4.94;100.00;99150.94;5031978;28;20052;-67
2024/01/04 10:10:20;;;;;;;3.67;0.70;;;;;;;4.90;100.00;99150.78;5031597;28;20595;-69
2024/01/04 10:12:47;;;;;;;3.40;0.40;;;;;;;4.86;100.00;99151.50;5031593;28;20687;-69
2024/01/04 10:15:15;;;;;;;2.97;0.40;;;;;;;4.81;100.00;99171.38;5031553;28;20025;-70
2024/01/04 10:17:41;;;;;;;3.03;0.55;;;;;;;4.75;100.00;99170.28;5031499;28;20040;-69
2024/01/04 10:20:08;;;;;;;2.92;0.57;;;;;;;4.75;100.00;99187.72;5030205;28;20025;-70
2024/01/04 10:22:33;;;;;;;3.00;0.40;;;;;;;4.73;100.00;99178.94;5031331;28;20033;-68
2024/01/04 10:25:09;;;;;;;2.57;0.40;;;;;;;4.68;100.00;99191.81;5030908;28;20033;-70
2024/01/04 10:27:35;;;;;;;4.53;0.60;;;;;;;4.65;100.00;99191.69;5031323;28;20025;-70
2024/01/04 10:30:05;;;;;;;1.93;0.37;;;;;;;4.64;100.00;99195.13;5031253;28;20463;-69
2024/01/04 10:32:30;;;;;;;2.50;0.40;;;;;;;4.63;99.98;99202.94;5031004;28;20040;-69
2024/01/04 10:35:04;;;;;;;2.70;0.50;;;;;;;4.65;100.00;99204.75;5030819;28;20033;-70
2024/01/04 10:37:29;;;;;;;3.30;0.60;;;;;;;4.65;99.90;99202.16;5030889;28;20064;-72
2024/01/04 10:39:56;;;;;;;2.47;0.40;;;;;;;4.66;99.15;99211.78;5031040;28;20063;-69
2024/01/04 10:42:22;;;;;;;3.00;0.52;;;;;;;4.66;98.53;99195.19;5031232;28;20125;-69
2024/01/04 10:44:54;;;;;;;4.03;0.50;;;;;;;4.66;98.49;99223.97;5030623;28;20124;-70
2024/01/04 10:47:20;;;;;;;3.50;0.55;;;;;;;4.65;97.46;99223.06;5030764;28;20411;-70
2024/01/04 10:49:47;;;;;;;2.33;0.40;;;;;;;4.66;97.19;99222.25;5030518;28;20048;-70
2024/01/04 10:52:15;;;;;;;1.90;0.35;;;;;;;4.66;96.37;99234.41;5030634;28;20029;-70
2024/01/04 10:54:41;;;;;;;2.30;0.40;;;;;;;4.66;95.72;99239.66;5030290;28;20061;-68
2024/01/04 10:57:08;;;;;;;4.20;0.57;;;;;;;4.65;94.44;99238.75;5030539;28;20080;-67
2024/01/04 10:59:34;;;;;;;3.13;0.57;;;;;;;4.65;93.96;99237.84;5030372;28;20060;-71
2024/01/04 11:02:01;;;;;;;1.03;0.20;;;;;;;4.61;93.03;99251.66;5033292;28;20607;-70
2024/01/04 11:04:29;;;;;;;2.10;0.47;;;;;;;4.62;92.41;99242.97;5030169;28;20064;-69
2024/01/04 11:06:54;;;;;;;2.50;0.35;;;;;;;4.63;91.77;99248.28;5030483;28;20063;-69
2024/01/04 11:09:21;;;;;;;2.80;0.50;;;;;;;4.63;91.35;99250.91;5030289;28;20037;-69
2024/01/04 11:11:54;;;;;;;2.53;0.40;;;;;;;4.65;91.25;99249.22;5030376;28;20378;-69
2024/01/04 11:14:24;;;;;;;2.25;0.30;;;;;;;4.63;90.30;99245.66;5030175;28;20029;-70
2024/01/04 11:17:04;;;;;;;2.30;0.30;;;;;;;4.62;89.47;99249.09;5030074;28;20037;-68
2024/01/04 11:20:01;;;;;;;1.73;0.38;;;;;;;4.60;89.85;99242.00;5030126;28;20494;-70
2024/01/04 11:23:13;;;;;;;1.80;0.30;;;;;;;4.63;90.18;99250.91;5030472;28;20037;-69
2024/01/04 11:26:00;;;;;;;2.00;0.30;;;;;;;4.60;89.42;99250.75;5019721;28;20179;-67
2024/01/04 11:30:56;;;;;;;2.33;0.40;;;;;;;4.57;89.22;99257.59;5101643;27;20372;-69
2024/01/04 11:33:27;;;;;;;2.50;0.40;;;;;;;4.56;88.86;99261.91;5087305;28;20511;-69
2024/01/04 11:35:52;;;;;;;2.72;0.50;;;;;;;4.53;88.29;99273.97;5086836;28;20032;-68
2024/01/04 11:40:31;;;;;;;3.42;0.40;;;;;;;4.49;87.68;99256.41;5053354;28;20770;-69
2024/01/04 11:42:56;;;;;;;2.07;0.40;;;;;;;4.48;87.25;99272.91;5047285;28;20021;-68
2024/01/04 11:45:23;;;;;;;2.03;0.35;;;;;;;4.49;87.59;99280.78;5046855;28;20099;-69
2024/01/04 11:47:50;;;;;;;2.83;0.60;;;;;;;4.52;87.27;99283.53;5047119;28;20498;-69